Time;durP1;ratioP1;P1;durP2;ratioP2;P2;SDS_P1;SDS_P2;PMS_P1;PMS_P2;Temp;Humidity;BMP_temperature;BMP_pressure;BME280_temperature;BME280_humidity;BME280_pressure;Samples;Min_cycle;Max_cycle;Signal;HPM_P1;HPM_P2
2022/09/04 00:09:11;;;;;;;6.83;6.20;;;17.00;99.90;;;;;;6040223;23;20505;-61
2022/09/04 00:20:56;;;;;;;7.00;6.30;;;16.70;99.90;;;;;;6040043;23;20161;-61
2022/09/04 00:28:17;;;;;;;7.83;6.40;;;16.60;99.90;;;;;;6040086;23;20152;-61
2022/09/04 00:30:53;;;;;;;8.20;6.07;;;16.60;99.90;;;;;;6039741;23;20170;-61
2022/09/04 00:38:03;;;;;;;7.60;6.60;;;16.60;99.90;;;;;;6040006;23;20164;-61
2022/09/04 00:40:34;;;;;;;8.70;6.43;;;16.60;99.90;;;;;;6038664;23;20537;-62
2022/09/04 00:48:08;;;;;;;6.73;6.00;;;16.60;99.90;;;;;;6040104;23;20157;-61
2022/09/04 01:00:06;;;;;;;6.37;5.77;;;16.40;99.90;;;;;;6068648;23;20200;-61
2022/09/04 01:07:30;;;;;;;7.03;6.20;;;16.30;99.90;;;;;;6068494;23;20339;-61
2022/09/04 01:14:54;;;;;;;8.07;6.80;;;16.20;99.90;;;;;;6068502;23;20162;-61
2022/09/04 01:17:28;;;;;;;7.50;6.60;;;16.20;99.90;;;;;;6042713;23;20177;-61
2022/09/04 01:29:27;;;;;;;8.13;7.40;;;16.10;99.90;;;;;;6068501;23;20517;-62
2022/09/04 01:41:03;;;;;;;8.93;7.27;;;15.90;99.90;;;;;;6069048;23;20144;-61
2022/09/04 01:57:35;;;;;;;8.03;7.23;;;15.80;99.90;;;;;;6041462;23;20153;-62
2022/09/04 02:09:30;;;;;;;6.67;6.07;;;15.70;99.90;;;;;;6041694;23;20144;-61
2022/09/04 02:16:32;;;;;;;7.17;6.47;;;15.60;99.90;;;;;;6041317;23;20544;-62
2022/09/04 02:19:06;;;;;;;8.27;7.57;;;15.50;99.90;;;;;;6042108;23;20591;-61
2022/09/04 02:26:27;;;;;;;7.60;6.90;;;15.50;99.90;;;;;;6041195;23;20180;-61
2022/09/04 02:33:46;;;;;;;8.00;7.20;;;15.60;99.90;;;;;;6042024;23;20197;-62
2022/09/04 02:40:59;;;;;;;12.20;9.07;;;15.60;99.90;;;;;;6041184;23;20215;-61
2022/09/04 02:48:19;;;;;;;9.43;8.47;;;15.80;99.90;;;;;;6041067;23;20158;-61
2022/09/04 02:51:05;;;;;;;12.70;9.63;;;15.80;99.90;;;;;;6048639;23;20196;-61
2022/09/04 03:02:56;;;;;;;10.27;9.23;;;15.80;99.90;;;;;;6069594;23;20183;-61
2022/09/04 03:05:27;;;;;;;11.80;9.70;;;15.90;99.90;;;;;;6069432;23;20191;-61
2022/09/04 03:17:25;;;;;;;12.73;10.27;;;15.90;99.90;;;;;;6069568;23;20608;-61
2022/09/04 03:24:21;;;;;;;19.60;11.50;;;16.00;99.90;;;;;;6069835;23;20156;-61
2022/09/04 03:31:39;;;;;;;15.83;11.50;;;16.10;99.90;;;;;;6070210;23;20147;-61
2022/09/04 03:38:56;;;;;;;19.77;13.30;;;16.20;99.90;;;;;;6069059;23;20179;-61
2022/09/04 03:45:58;;;;;;;18.23;13.77;;;16.30;99.90;;;;;;6069044;23;20336;-61
2022/09/04 03:48:50;;;;;;;18.10;13.40;;;16.30;99.90;;;;;;6069208;23;20520;-61
2022/09/04 04:24:08;;;;;;;40.90;25.07;;;16.30;99.90;;;;;;6011777;23;20176;-61
2022/09/04 04:26:48;;;;;;;43.17;26.13;;;16.20;99.90;;;;;;5901641;23;20265;-61
2022/09/04 04:38:46;;;;;;;68.40;34.40;;;16.20;99.90;;;;;;6011713;23;20669;-61
2022/09/04 04:41:25;;;;;;;69.77;36.43;;;16.20;99.90;;;;;;6011941;23;20170;-60
2022/09/04 04:53:05;;;;;;;77.03;38.87;;;16.20;99.90;;;;;;6011908;23;20142;-61
2022/09/04 05:00:06;;;;;;;82.53;40.73;;;16.20;99.90;;;;;;6010169;23;20153;-61
2022/09/04 05:07:22;;;;;;;93.57;43.70;;;16.40;99.90;;;;;;6011650;23;20564;-61
2022/09/04 05:19:14;;;;;;;112.10;48.80;;;16.50;99.90;;;;;;6011447;23;20229;-60
2022/09/04 05:21:52;;;;;;;110.73;49.10;;;16.70;99.90;;;;;;6011551;23;20206;-61
2022/09/04 05:24:32;;;;;;;101.80;46.93;;;16.70;99.90;;;;;;6011331;23;20173;-61
2022/09/04 05:36:16;;;;;;;91.67;42.83;;;16.80;99.90;;;;;;6011434;23;20161;-60
2022/09/04 05:43:25;;;;;;;96.50;43.97;;;16.90;99.90;;;;;;6011160;23;20169;-61
2022/09/04 05:46:06;;;;;;;95.43;44.83;;;16.90;99.90;;;;;;6011047;23;20280;-61
2022/09/04 06:02:48;;;;;;;101.90;41.70;;;17.00;99.90;;;;;;6068271;23;20164;-61
2022/09/04 06:14:43;;;;;;;71.67;35.73;;;17.20;99.90;;;;;;6068165;23;20144;-61
2022/09/04 06:17:29;;;;;;;74.47;35.40;;;17.20;99.90;;;;;;6042756;23;20175;-61
2022/09/04 06:20:17;;;;;;;71.97;35.27;;;17.20;99.90;;;;;;6068062;23;20193;-61
2022/09/04 06:23:06;;;;;;;73.40;34.17;;;17.20;99.90;;;;;;6067972;23;20184;-62
2022/09/04 06:35:08;;;;;;;57.57;27.90;;;17.70;99.90;;;;;;6069760;23;20145;-61
2022/09/04 06:42:04;;;;;;;39.37;23.17;;;18.20;99.90;;;;;;6069693;23;20162;-61
2022/09/04 06:44:43;;;;;;;40.73;21.63;;;18.50;99.90;;;;;;6070222;23;20636;-61
2022/09/04 06:56:29;;;;;;;25.80;16.97;;;19.20;99.90;;;;;;6069358;23;20191;-62
2022/09/04 07:03:38;;;;;;;22.07;15.90;;;19.60;99.90;;;;;;6069687;23;20690;-60
2022/09/04 07:06:12;;;;;;;21.70;15.90;;;19.80;99.90;;;;;;6068163;23;20263;-62
2022/09/04 07:18:09;;;;;;;19.63;13.93;;;20.60;99.90;;;;;;6069835;23;20204;-62
2022/09/04 07:25:22;;;;;;;18.90;13.63;;;20.70;99.90;;;;;;6069354;23;20140;-61
2022/09/04 07:28:10;;;;;;;17.17;12.07;;;20.80;99.90;;;;;;6069639;23;20219;-61
2022/09/04 07:39:48;;;;;;;16.40;11.77;;;21.20;99.90;;;;;;6069169;23;20596;-62
2022/09/04 07:51:37;;;;;;;14.87;11.07;;;21.70;99.90;;;;;;6069080;23;20206;-61
2022/09/04 08:13:11;;;;;;;13.77;8.53;;;22.80;99.90;;;;;;6040633;23;20172;-61
2022/09/04 08:20:44;;;;;;;8.37;6.77;;;23.00;99.90;;;;;;6040311;23;20185;-61
2022/09/04 08:23:35;;;;;;;6.53;5.73;;;23.30;99.90;;;;;;6040123;23;20188;-62
2022/09/04 08:35:22;;;;;;;5.37;4.97;;;23.80;99.90;;;;;;6040193;23;20773;-62
2022/09/04 08:47:33;;;;;;;7.63;5.87;;;24.30;99.90;;;;;;6040243;23;20713;-61
2022/09/04 08:55:12;;;;;;;9.37;7.03;;;24.50;99.90;;;;;;6040491;23;20188;-62
2022/09/04 09:03:09;;;;;;;8.87;6.13;;;24.90;99.90;;;;;;6011269;23;20219;-62
2022/09/04 09:10:52;;;;;;;6.77;5.73;;;25.30;99.90;;;;;;6011257;23;20253;-62
2022/09/04 09:18:02;;;;;;;5.00;4.60;;;25.00;99.90;;;;;;6011212;23;20236;-62
2022/09/04 09:25:19;;;;;;;4.23;3.83;;;25.50;99.90;;;;;;6011307;23;20192;-62
2022/09/04 09:33:05;;;;;;;3.93;3.73;;;25.80;99.90;;;;;;6011455;23;20141;-62
2022/09/04 09:40:31;;;;;;;3.60;3.27;;;26.40;99.90;;;;;;6011210;23;20249;-62
2022/09/04 09:48:15;;;;;;;2.97;2.60;;;26.20;99.90;;;;;;6011252;23;20597;-62
2022/09/04 10:18:39;;;;;;;3.17;2.13;;;27.80;99.90;;;;;;6041348;23;20211;-62
2022/09/04 10:21:27;;;;;;;1.60;1.60;;;27.80;99.90;;;;;;6027647;23;20175;-62
2022/09/04 10:24:14;;;;;;;2.30;2.03;;;27.90;99.90;;;;;;6041344;23;20170;-62
2022/09/04 10:27:16;;;;;;;2.22;2.00;;;27.90;99.90;;;;;;6041349;23;20184;-62
2022/09/04 10:34:57;;;;;;;4.13;1.90;;;28.50;99.90;;;;;;6041653;23;20587;-63
2022/09/04 10:46:42;;;;;;;1.65;1.55;;;28.60;99.90;;;;;;6040917;23;20175;-63
2022/09/04 10:54:21;;;;;;;4.15;1.80;;;28.70;99.90;;;;;;6040863;23;20157;-63
2022/09/04 11:01:20;;;;;;;2.60;2.00;;;28.90;99.90;;;;;;6012622;23;20275;-63
2022/09/04 11:04:26;;;;;;;2.20;2.03;;;29.30;99.90;;;;;;6012653;23;20161;-62
2022/09/04 11:07:25;;;;;;;2.08;1.88;;;28.90;99.90;;;;;;6034778;23;20199;-62
2022/09/04 11:10:20;;;;;;;4.80;2.30;;;28.50;99.90;;;;;;6006466;23;20542;-63
2022/09/04 11:22:22;;;;;;;2.58;1.80;;;29.10;99.90;;;;;;6012724;23;20196;-63
2022/09/04 11:29:03;;;;;;;1.90;1.80;;;28.50;99.90;;;;;;6012392;23;20168;-62
2022/09/04 11:31:47;;;;;;;4.28;2.28;;;28.30;99.90;;;;;;6011161;23;20169;-61
2022/09/04 11:43:48;;;;;;;3.70;2.50;;;29.10;99.90;;;;;;6012532;23;20167;-62
2022/09/04 11:51:00;;;;;;;1.80;1.70;;;28.70;99.90;;;;;;6012287;23;20594;-62
2022/09/04 11:53:52;;;;;;;4.10;2.22;;;28.60;99.90;;;;;;6010204;23;20681;-62
2022/09/04 11:56:37;;;;;;;1.90;1.80;;;28.90;98.80;;;;;;6012039;23;20255;-62
2022/09/04 12:13:18;;;;;;;2.13;1.55;;;29.20;98.40;;;;;;6012088;23;20176;-62
2022/09/04 12:25:24;;;;;;;1.50;1.40;;;28.70;95.20;;;;;;6011675;23;20519;-62
2022/09/04 12:32:38;;;;;;;4.35;1.67;;;28.60;95.60;;;;;;6011701;23;20164;-62
2022/09/04 12:40:20;;;;;;;1.40;1.40;;;28.20;95.20;;;;;;6011341;23;20176;-62
2022/09/04 12:51:52;;;;;;;1.50;1.40;;;28.40;95.30;;;;;;6011436;23;20538;-62
2022/09/04 12:59:06;;;;;;;2.10;1.90;;;28.00;95.00;;;;;;6009934;23;20236;-61
2022/09/04 13:15:41;;;;;;;2.80;1.90;;;28.00;95.80;;;;;;6011233;23;20156;-62
2022/09/04 13:27:32;;;;;;;1.63;1.60;;;28.30;96.50;;;;;;6011292;23;20286;-62
2022/09/04 13:30:06;;;;;;;3.90;1.60;;;28.50;95.90;;;;;;6011183;23;20179;-62
2022/09/04 13:37:26;;;;;;;3.33;1.60;;;28.90;96.00;;;;;;6012226;23;20656;-62
2022/09/04 13:44:56;;;;;;;1.75;1.65;;;29.10;95.10;;;;;;6013433;23;20146;-62
2022/09/04 13:52:18;;;;;;;1.73;1.63;;;29.30;94.50;;;;;;6013113;23;20149;-62
2022/09/04 13:54:56;;;;;;;1.73;1.63;;;29.30;94.40;;;;;;6011284;23;20222;-62
2022/09/04 14:16:00;;;;;;;1.80;1.70;;;29.30;94.40;;;;;;6041916;23;20159;-63
2022/09/04 14:18:54;;;;;;;2.10;1.50;;;29.70;94.20;;;;;;6041613;23;20477;-62
2022/09/04 14:30:25;;;;;;;2.00;1.90;;;29.60;94.00;;;;;;6041083;23;20218;-62
2022/09/04 14:33:06;;;;;;;3.47;1.70;;;30.00;94.00;;;;;;6040000;23;20210;-62
2022/09/04 14:35:52;;;;;;;3.33;1.70;;;29.90;93.80;;;;;;6040999;23;20221;-62
2022/09/04 14:38:41;;;;;;;1.58;1.48;;;29.60;93.80;;;;;;6041042;23;20203;-62
2022/09/04 14:41:25;;;;;;;1.50;1.50;;;29.60;94.50;;;;;;6041722;23;20253;-62
2022/09/04 14:44:14;;;;;;;2.25;1.55;;;29.90;93.70;;;;;;6041119;23;20210;-62
2022/09/04 14:46:55;;;;;;;1.75;1.65;;;30.00;93.90;;;;;;6041066;23;20202;-62
2022/09/04 14:49:30;;;;;;;1.65;1.55;;;30.10;94.10;;;;;;6040864;23;20225;-62
2022/09/04 14:52:08;;;;;;;5.38;1.75;;;30.10;93.80;;;;;;6039647;23;20262;-62
2022/09/04 14:54:42;;;;;;;1.98;1.83;;;30.30;94.60;;;;;;6041015;23;20247;-62
2022/09/04 15:02:06;;;;;;;1.80;1.77;;;30.60;93.50;;;;;;6041469;23;20150;-62
2022/09/04 15:18:44;;;;;;;1.85;1.58;;;30.60;94.40;;;;;;6012497;23;20203;-62
2022/09/04 15:21:18;;;;;;;1.80;1.70;;;30.80;93.80;;;;;;6013108;23;20164;-62
2022/09/04 15:23:54;;;;;;;4.07;1.77;;;30.90;93.50;;;;;;6012480;23;20174;-62
2022/09/04 15:26:28;;;;;;;4.47;1.63;;;31.10;94.70;;;;;;6012202;23;20177;-63
2022/09/04 15:29:07;;;;;;;2.30;1.67;;;31.10;93.30;;;;;;6012248;23;20214;-62
2022/09/04 15:31:39;;;;;;;2.00;1.90;;;31.00;93.60;;;;;;6012387;23;20552;-62
2022/09/04 15:38:53;;;;;;;2.53;1.60;;;31.10;93.60;;;;;;6012983;23;20149;-62
2022/09/04 15:41:34;;;;;;;4.07;1.65;;;30.80;94.20;;;;;;6010785;23;20184;-62
2022/09/04 15:44:13;;;;;;;1.60;1.50;;;31.00;93.80;;;;;;6012827;23;20205;-62
2022/09/04 15:46:48;;;;;;;1.63;1.58;;;31.00;93.70;;;;;;6008697;23;20207;-62
2022/09/04 15:49:25;;;;;;;2.58;1.65;;;31.00;93.60;;;;;;6034126;23;20273;-62
2022/09/04 15:51:57;;;;;;;2.17;1.90;;;31.20;93.70;;;;;;6012118;23;20175;-62
2022/09/04 15:54:35;;;;;;;1.70;1.60;;;31.20;92.90;;;;;;6012223;23;20152;-62
2022/09/04 15:57:10;;;;;;;1.83;1.73;;;31.30;92.60;;;;;;6011839;23;20630;-62
2022/09/04 15:59:49;;;;;;;1.73;1.67;;;31.20;92.60;;;;;;6012015;23;20168;-62
2022/09/04 16:02:36;;;;;;;1.63;1.58;;;31.20;92.70;;;;;;6012057;23;20168;-62
2022/09/04 16:05:46;;;;;;;5.40;1.55;;;31.10;92.90;;;;;;6012242;23;20167;-62
2022/09/04 16:08:22;;;;;;;2.83;1.40;;;31.20;93.00;;;;;;6001820;23;20197;-62
2022/09/04 16:10:58;;;;;;;1.50;1.50;;;31.30;92.50;;;;;;6011787;23;20194;-62
2022/09/04 16:13:51;;;;;;;4.32;1.70;;;31.30;92.30;;;;;;6010836;23;20273;-62
2022/09/04 16:16:32;;;;;;;1.90;1.70;;;31.20;93.00;;;;;;6011950;23;20188;-62
2022/09/04 16:19:07;;;;;;;2.28;1.30;;;31.00;92.60;;;;;;6011769;23;20164;-62
2022/09/04 16:21:48;;;;;;;1.98;1.60;;;30.90;93.00;;;;;;6012035;23;20644;-62
2022/09/04 16:24:21;;;;;;;1.52;1.48;;;30.90;92.70;;;;;;6010333;23;20199;-62
2022/09/04 16:26:54;;;;;;;3.08;1.50;;;30.90;92.80;;;;;;6011830;23;20174;-62
2022/09/04 16:29:35;;;;;;;1.90;1.67;;;30.90;93.50;;;;;;6011783;23;20187;-62
2022/09/04 16:32:08;;;;;;;2.75;1.50;;;31.00;93.20;;;;;;6011479;23;20167;-62
2022/09/04 16:34:45;;;;;;;1.70;1.60;;;31.00;93.40;;;;;;6010179;23;20206;-61
2022/09/04 16:37:20;;;;;;;2.05;1.70;;;31.10;93.30;;;;;;6011415;23;20246;-61
2022/09/04 16:40:12;;;;;;;2.55;1.58;;;31.00;92.90;;;;;;6012198;23;20640;-62
2022/09/04 16:42:48;;;;;;;1.75;1.50;;;31.00;93.50;;;;;;6010230;23;20164;-62
2022/09/04 16:45:21;;;;;;;2.28;1.70;;;30.70;93.00;;;;;;6004122;23;20204;-64
2022/09/04 16:47:55;;;;;;;2.00;1.80;;;30.70;93.20;;;;;;6009832;23;20225;-62
2022/09/04 16:50:34;;;;;;;1.52;1.50;;;30.60;93.70;;;;;;6011368;23;20166;-62
2022/09/04 17:02:25;;;;;;;2.47;1.70;;;30.00;93.60;;;;;;6011361;23;20487;-62
2022/09/04 17:05:16;;;;;;;5.22;1.75;;;29.60;93.90;;;;;;6011619;23;20181;-62
2022/09/04 17:07:51;;;;;;;4.65;1.70;;;29.70;94.20;;;;;;6039464;23;20647;-62
2022/09/04 17:10:34;;;;;;;3.13;1.52;;;29.70;94.90;;;;;;6068053;23;20196;-62
2022/09/04 17:13:10;;;;;;;1.70;1.60;;;29.80;94.50;;;;;;6068339;23;20195;-62
2022/09/04 17:15:52;;;;;;;1.77;1.67;;;29.90;94.50;;;;;;6068617;23;20487;-62
2022/09/04 17:18:24;;;;;;;2.00;1.80;;;30.00;94.80;;;;;;6068220;23;20256;-62
2022/09/04 17:20:59;;;;;;;3.88;1.60;;;30.00;94.70;;;;;;6068332;23;20636;-62
2022/09/04 17:23:54;;;;;;;1.80;1.70;;;29.90;94.70;;;;;;6066781;23;20179;-62
2022/09/04 17:26:48;;;;;;;2.50;1.50;;;29.70;95.30;;;;;;6066955;23;20250;-62
2022/09/04 17:29:45;;;;;;;1.73;1.63;;;29.60;95.10;;;;;;6041681;23;20238;-63
2022/09/04 17:32:21;;;;;;;3.58;1.80;;;29.30;94.90;;;;;;6066408;23;20170;-63
2022/09/04 17:35:19;;;;;;;2.00;1.80;;;29.00;96.90;;;;;;6066724;23;20165;-63
2022/09/04 17:38:17;;;;;;;3.17;1.70;;;28.70;96.10;;;;;;6067211;23;20627;-63
2022/09/04 17:41:19;;;;;;;3.05;1.80;;;28.40;96.10;;;;;;6066420;23;20173;-63
2022/09/04 17:44:34;;;;;;;1.67;1.58;;;28.20;97.30;;;;;;6041754;23;20192;-62
2022/09/04 17:47:14;;;;;;;3.03;1.43;;;27.90;97.90;;;;;;6040304;23;20240;-63
2022/09/04 17:49:45;;;;;;;1.63;1.63;;;27.70;98.20;;;;;;6065991;23;20192;-63
2022/09/04 17:52:22;;;;;;;1.60;1.60;;;27.40;99.50;;;;;;6067181;23;20168;-63
2022/09/04 17:54:53;;;;;;;2.00;1.90;;;27.30;99.90;;;;;;6067013;23;20172;-62
2022/09/04 17:57:30;;;;;;;1.73;1.30;;;27.10;99.90;;;;;;6066261;23;20244;-62
2022/09/04 18:00:03;;;;;;;2.23;1.80;;;26.90;99.90;;;;;;6061817;23;20223;-63
2022/09/04 18:02:40;;;;;;;2.33;2.23;;;26.80;99.90;;;;;;6038378;23;20164;-63
2022/09/04 18:05:50;;;;;;;3.83;2.63;;;26.60;99.90;;;;;;6039192;23;20192;-62
2022/09/04 18:08:28;;;;;;;2.73;1.93;;;26.40;99.90;;;;;;6061948;23;20703;-62
2022/09/04 18:11:03;;;;;;;4.47;1.60;;;26.20;99.90;;;;;;6061836;23;20278;-62
2022/09/04 18:13:40;;;;;;;2.17;1.83;;;26.00;99.90;;;;;;6062586;23;20203;-63
2022/09/04 18:16:49;;;;;;;3.87;1.67;;;25.70;99.90;;;;;;6062994;23;20242;-62
2022/09/04 18:19:44;;;;;;;2.10;2.00;;;25.50;99.90;;;;;;6065088;23;20651;-62
2022/09/04 18:22:54;;;;;;;2.10;1.90;;;25.30;99.90;;;;;;6066699;23;20204;-62
2022/09/04 18:25:34;;;;;;;1.87;1.70;;;25.10;99.90;;;;;;6062313;23;20612;-62
2022/09/04 18:31:58;;;;;;;4.07;2.13;;;24.70;99.90;;;;;;6063116;23;20158;-62
2022/09/04 18:34:54;;;;;;;3.33;2.00;;;24.50;99.90;;;;;;6063470;23;20257;-62
2022/09/04 18:38:25;;;;;;;2.10;2.00;;;24.30;99.90;;;;;;6065233;23;20588;-62
2022/09/04 18:41:05;;;;;;;2.73;1.80;;;24.10;99.90;;;;;;6064263;23;20812;-62
2022/09/04 18:44:04;;;;;;;2.27;1.63;;;23.90;99.90;;;;;;6063326;23;20178;-62
2022/09/04 18:47:09;;;;;;;3.70;1.90;;;23.80;99.90;;;;;;6063461;23;20799;-62
2022/09/04 18:50:03;;;;;;;4.27;1.80;;;23.60;99.90;;;;;;6037614;23;20200;-62
2022/09/04 18:53:15;;;;;;;2.37;1.80;;;23.40;99.90;;;;;;6065014;23;20190;-62
2022/09/04 18:55:48;;;;;;;4.23;2.30;;;23.20;99.90;;;;;;6038336;23;20575;-62
2022/09/04 18:58:56;;;;;;;3.30;3.00;;;23.00;99.90;;;;;;6066208;23;20169;-62
2022/09/04 19:01:40;;;;;;;2.87;2.37;;;22.90;99.90;;;;;;6039542;23;20169;-62
2022/09/04 19:04:44;;;;;;;2.43;2.23;;;22.80;99.90;;;;;;6066873;23;20169;-62
2022/09/04 19:07:26;;;;;;;3.80;2.20;;;22.70;99.90;;;;;;6040373;23;20292;-62
2022/09/04 19:10:03;;;;;;;3.07;2.10;;;22.60;99.90;;;;;;6065610;23;20268;-62
2022/09/04 19:13:10;;;;;;;2.10;2.00;;;22.40;99.90;;;;;;6065983;23;20526;-62
2022/09/04 19:16:00;;;;;;;3.10;2.83;;;22.30;99.90;;;;;;6064548;23;20227;-62
2022/09/04 19:19:08;;;;;;;2.87;2.53;;;22.20;99.90;;;;;;6064187;23;20202;-62
2022/09/04 19:21:48;;;;;;;5.33;2.40;;;22.10;99.90;;;;;;6039491;23;20472;-62
2022/09/04 19:24:50;;;;;;;5.03;2.20;;;21.90;99.90;;;;;;6040762;23;20157;-62
2022/09/04 19:27:27;;;;;;;6.80;2.33;;;21.80;99.90;;;;;;6065082;23;20168;-62
2022/09/04 19:30:18;;;;;;;2.10;2.00;;;21.80;99.90;;;;;;6041211;23;20196;-62
2022/09/04 19:33:04;;;;;;;3.23;2.00;;;21.70;99.90;;;;;;6068067;23;20251;-62
2022/09/04 19:35:39;;;;;;;2.73;2.53;;;21.60;99.90;;;;;;6065772;23;20251;-62
2022/09/04 19:38:16;;;;;;;4.33;2.40;;;21.60;99.90;;;;;;6066244;23;20199;-62
2022/09/04 19:41:11;;;;;;;3.57;2.40;;;21.50;99.90;;;;;;6063964;23;20169;-62
2022/09/04 19:44:05;;;;;;;2.67;1.97;;;21.40;99.90;;;;;;6039854;23;20231;-62
2022/09/04 19:47:04;;;;;;;3.17;2.30;;;21.30;99.90;;;;;;6066199;23;20182;-62
2022/09/04 19:49:44;;;;;;;2.47;2.27;;;21.20;99.90;;;;;;6015888;23;20224;-62
2022/09/04 19:52:38;;;;;;;2.40;2.30;;;21.10;99.90;;;;;;6016423;23;20696;-62
2022/09/04 19:55:41;;;;;;;4.60;2.20;;;21.00;99.90;;;;;;6039906;23;20562;-62
2022/09/04 19:58:11;;;;;;;3.13;2.33;;;21.00;99.90;;;;;;6065327;23;20255;-62
2022/09/04 20:00:47;;;;;;;4.80;2.60;;;21.00;99.90;;;;;;6065370;23;20164;-62
2022/09/04 20:03:21;;;;;;;2.80;2.57;;;20.90;99.90;;;;;;6038559;23;20255;-62
2022/09/04 20:06:03;;;;;;;5.03;2.70;;;20.80;99.90;;;;;;6040769;23;20286;-62
2022/09/04 20:08:52;;;;;;;2.50;2.30;;;20.80;99.90;;;;;;6039693;23;20204;-62
2022/09/04 20:11:25;;;;;;;3.00;2.43;;;20.80;99.90;;;;;;6064913;23;20196;-62
2022/09/04 20:14:11;;;;;;;3.57;2.70;;;20.70;99.90;;;;;;6038634;23;20207;-62
2022/09/04 20:16:50;;;;;;;4.43;2.40;;;20.60;99.90;;;;;;6066169;23;20167;-62
2022/09/04 20:19:24;;;;;;;3.90;2.60;;;20.60;99.90;;;;;;6066381;23;20172;-62
2022/09/04 20:22:00;;;;;;;2.43;2.30;;;20.50;99.90;;;;;;6067101;23;20159;-62
2022/09/04 20:24:38;;;;;;;3.27;2.93;;;20.40;99.90;;;;;;6066393;23;20172;-62
2022/09/04 20:27:15;;;;;;;5.97;2.50;;;20.30;99.90;;;;;;6064431;23;20243;-62
2022/09/04 20:29:50;;;;;;;3.50;3.20;;;20.20;99.90;;;;;;6015385;23;20640;-62
2022/09/04 20:32:26;;;;;;;4.80;2.87;;;20.10;99.90;;;;;;6063480;23;20172;-62
2022/09/04 20:35:00;;;;;;;3.70;2.67;;;20.10;99.90;;;;;;6063363;23;20256;-62
2022/09/04 20:37:47;;;;;;;3.27;2.97;;;20.00;99.90;;;;;;6036683;23;20195;-62
2022/09/04 20:41:00;;;;;;;4.37;3.07;;;19.90;99.90;;;;;;6038178;23;20633;-62
2022/09/04 20:43:39;;;;;;;5.17;2.80;;;19.90;99.90;;;;;;6064924;23;20199;-62
2022/09/04 20:46:47;;;;;;;5.57;2.93;;;19.80;99.90;;;;;;6066398;23;20174;-62
2022/09/04 20:49:42;;;;;;;3.40;3.10;;;19.80;99.90;;;;;;6066546;23;20176;-62
2022/09/04 20:52:51;;;;;;;3.03;2.77;;;19.70;99.90;;;;;;6041255;23;20176;-61
2022/09/04 20:55:53;;;;;;;2.90;2.60;;;19.60;99.90;;;;;;6067082;23;20192;-62
2022/09/04 20:58:36;;;;;;;4.17;2.70;;;19.50;99.90;;;;;;6066621;23;20517;-62
2022/09/04 21:01:34;;;;;;;2.83;2.63;;;19.50;99.90;;;;;;6065119;23;20246;-62
2022/09/04 21:04:32;;;;;;;4.83;2.43;;;19.40;99.90;;;;;;6067641;23;20168;-63
2022/09/04 21:07:20;;;;;;;2.73;2.53;;;19.40;99.90;;;;;;6041354;23;20218;-61
2022/09/04 21:09:58;;;;;;;3.07;2.53;;;19.30;99.90;;;;;;6041597;23;20172;-61
2022/09/04 21:12:35;;;;;;;3.10;2.90;;;19.30;99.90;;;;;;6041299;23;20720;-61
2022/09/04 21:15:12;;;;;;;9.57;6.97;;;19.20;99.90;;;;;;6040954;23;20172;-63
2022/09/04 21:18:16;;;;;;;2.97;2.83;;;19.10;99.90;;;;;;6066324;23;20243;-63
2022/09/04 21:20:55;;;;;;;4.03;3.10;;;19.00;99.90;;;;;;6066642;23;20164;-63
2022/09/04 21:23:57;;;;;;;3.40;3.10;;;19.00;99.90;;;;;;6066616;23;20165;-63
2022/09/04 21:26:48;;;;;;;3.40;2.80;;;18.90;99.90;;;;;;6041320;23;20605;-63
2022/09/04 21:29:49;;;;;;;4.27;2.97;;;18.90;99.90;;;;;;6067003;23;20234;-63
2022/09/04 21:32:33;;;;;;;3.20;2.90;;;18.90;99.90;;;;;;6045173;23;20234;-61
2022/09/04 21:35:11;;;;;;;9.47;2.97;;;18.80;99.90;;;;;;6066128;23;20171;-63
2022/09/04 21:37:47;;;;;;;2.87;2.77;;;18.80;99.90;;;;;;6065244;23;20635;-61
2022/09/04 21:40:52;;;;;;;3.40;3.20;;;18.70;99.90;;;;;;6063772;23;20247;-61
2022/09/04 21:43:55;;;;;;;3.50;3.20;;;18.60;99.90;;;;;;6036382;23;20175;-61
2022/09/04 21:46:51;;;;;;;5.13;3.27;;;18.60;99.90;;;;;;6063887;23;20172;-61
2022/09/04 21:49:39;;;;;;;5.73;3.50;;;18.50;99.90;;;;;;6063366;23;20168;-61
2022/09/04 21:52:38;;;;;;;3.23;2.80;;;18.50;99.90;;;;;;6064858;23;20176;-61
2022/09/04 21:55:17;;;;;;;2.70;2.60;;;18.40;99.90;;;;;;6059190;23;20816;-61
2022/09/04 21:58:31;;;;;;;6.00;3.20;;;18.20;99.90;;;;;;6067808;23;20168;-61
2022/09/04 22:01:44;;;;;;;4.17;3.57;;;18.20;99.90;;;;;;6067819;23;20643;-61
2022/09/04 22:04:45;;;;;;;3.87;3.23;;;18.10;99.90;;;;;;6068270;23;20168;-62
2022/09/04 22:07:26;;;;;;;3.60;3.30;;;18.00;99.90;;;;;;6041851;23;20200;-62
2022/09/04 22:10:38;;;;;;;3.50;3.30;;;17.90;99.90;;;;;;6067337;23;20484;-61
2022/09/04 22:13:39;;;;;;;6.03;2.90;;;17.90;99.90;;;;;;6067716;23;20192;-61
2022/09/04 22:16:45;;;;;;;3.23;2.93;;;17.80;99.90;;;;;;6068536;23;20554;-61
2022/09/04 22:20:00;;;;;;;6.03;3.27;;;17.80;99.90;;;;;;6067685;23;20223;-61
2022/09/04 22:22:49;;;;;;;3.30;3.10;;;17.70;99.90;;;;;;6042336;23;20228;-61
2022/09/04 22:25:38;;;;;;;3.77;3.47;;;17.70;99.90;;;;;;6068044;23;20194;-62
2022/09/04 22:28:47;;;;;;;3.17;2.97;;;17.70;99.90;;;;;;6067922;23;20203;-62
2022/09/04 22:31:43;;;;;;;5.10;3.73;;;17.70;99.90;;;;;;6035478;23;20195;-61
2022/09/04 22:34:49;;;;;;;3.53;2.97;;;17.60;99.90;;;;;;6068360;23;20174;-61
2022/09/04 22:37:53;;;;;;;5.40;3.10;;;17.60;99.90;;;;;;6039946;23;20185;-61
2022/09/04 22:40:31;;;;;;;3.97;2.67;;;17.60;99.90;;;;;;6066721;23;20177;-61
2022/09/04 22:43:15;;;;;;;4.43;3.23;;;17.60;99.90;;;;;;6066917;23;20246;-61
2022/09/04 22:46:17;;;;;;;3.30;3.00;;;17.60;99.90;;;;;;6066854;23;20168;-61
2022/09/04 22:49:31;;;;;;;6.57;2.90;;;17.70;99.90;;;;;;6067251;23;20168;-61
2022/09/04 22:52:39;;;;;;;4.87;3.00;;;17.70;99.90;;;;;;6067159;23;20195;-62
2022/09/04 22:55:30;;;;;;;4.53;2.83;;;17.70;99.90;;;;;;6058195;23;20644;-61
2022/09/04 22:58:54;;;;;;;5.10;3.00;;;17.80;99.90;;;;;;6068356;23;20164;-61
2022/09/04 23:02:06;;;;;;;3.00;2.80;;;17.80;99.90;;;;;;5950615;24;20176;-61
2022/09/04 23:05:13;;;;;;;4.37;3.07;;;17.80;99.90;;;;;;6016908;23;20825;-61
2022/09/04 23:08:18;;;;;;;3.87;3.00;;;17.80;99.90;;;;;;6041906;23;20196;-61
2022/09/04 23:11:24;;;;;;;2.80;2.70;;;17.70;99.90;;;;;;6067599;23;20168;-61
2022/09/04 23:14:23;;;;;;;4.67;2.87;;;17.70;99.90;;;;;;6067963;23;20201;-61
2022/09/04 23:17:06;;;;;;;4.83;2.70;;;17.70;99.90;;;;;;6067234;23;20573;-62
2022/09/04 23:20:06;;;;;;;7.17;2.97;;;17.70;99.90;;;;;;6042409;23;20191;-61
2022/09/04 23:23:33;;;;;;;3.10;2.83;;;17.70;99.90;;;;;;6067347;23;20166;-61
2022/09/04 23:26:48;;;;;;;2.83;2.63;;;17.70;99.90;;;;;;6066357;23;20234;-61
2022/09/04 23:29:43;;;;;;;2.73;2.53;;;17.70;99.90;;;;;;6067471;23;20176;-61
2022/09/04 23:32:36;;;;;;;3.00;2.80;;;17.60;99.90;;;;;;6067968;23;20215;-62
2022/09/04 23:35:15;;;;;;;3.20;2.80;;;17.60;99.90;;;;;;6066694;23;20239;-62
2022/09/04 23:38:18;;;;;;;3.97;2.57;;;17.50;99.90;;;;;;6040885;23;20202;-62
2022/09/04 23:40:52;;;;;;;3.00;2.80;;;17.50;99.90;;;;;;6062052;23;20210;-62
2022/09/04 23:44:00;;;;;;;3.43;2.83;;;17.50;99.90;;;;;;6065170;23;20609;-62
2022/09/04 23:46:47;;;;;;;3.57;2.83;;;17.50;99.90;;;;;;6066512;23;20202;-62
2022/09/04 23:49:43;;;;;;;4.40;2.70;;;17.50;99.90;;;;;;6067028;23;20181;-63
2022/09/04 23:52:20;;;;;;;3.13;2.90;;;17.40;99.90;;;;;;6029159;23;20221;-63
2022/09/04 23:55:08;;;;;;;2.80;2.70;;;17.40;99.90;;;;;;6066412;23;20189;-62
2022/09/04 23:57:46;;;;;;;4.13;2.80;;;17.40;99.90;;;;;;6066996;23;20173;-63
